Time;durP1;ratioP1;P1;durP2;ratioP2;P2;SDS_P1;SDS_P2;PMS_P1;PMS_P2;Temp;Humidity;BMP_temperature;BMP_pressure;BME280_temperature;BME280_humidity;BME280_pressure;Samples;Min_cycle;Max_cycle;Signal;HPM_P1;HPM_P2
2021/04/18 00:00:16;;;;;;;;;;;;;;;;;;4941121;29;19911;-56
2021/04/18 00:02:42;;;;;;;;;;;;;;;;;;4936543;29;20276;-53
2021/04/18 00:05:07;;;;;;;;;;;;;;;;;;4937259;29;19934;-55
2021/04/18 00:07:32;;;;;;;;;;;;;;;;;;4936890;29;20403;-54
2021/04/18 00:09:59;;;;;;;;;;;;;;;;;;4937206;29;19950;-53
2021/04/18 00:12:24;;;;;;;;;;;;;;;;;;4938696;29;19918;-54
2021/04/18 00:14:49;;;;;;;;;;;;;;;;;;4936645;29;19918;-53
2021/04/18 00:17:14;;;;;;;;;;;;;;;;;;4937407;29;19925;-51
2021/04/18 00:19:41;;;;;;;;;;;;;;;;;;4938038;29;19914;-51
2021/04/18 00:22:06;;;;;;;;;;;;;;;;;;4937017;29;19929;-54
2021/04/18 00:24:31;;;;;;;;;;;;;;;;;;4938104;29;20319;-55
2021/04/18 00:26:56;;;;;;;;;;;;;;;;;;4938808;29;19915;-56
2021/04/18 00:29:21;;;;;;;;;;;;;;;;;;4940590;29;19911;-54
2021/04/18 00:31:47;;;;;;;;;;;;;;;;;;4951479;29;20430;-55
2021/04/18 00:34:12;;;;;;;;;;;;;;;;;;4954091;29;19922;-56
2021/04/18 00:36:37;;;;;;;;;;;;;;;;;;4952634;29;20291;-56
2021/04/18 00:39:02;;;;;;;;;;;;;;;;;;4947160;29;20395;-55
2021/04/18 00:41:28;;;;;;;;;;;;;;;;;;4945960;29;19911;-54
2021/04/18 00:43:53;;;;;;;;;;;;;;;;;;4945822;29;19911;-55
2021/04/18 00:46:18;;;;;;;;;;;;;;;;;;4939184;29;19947;-54
2021/04/18 00:48:43;;;;;;;;;;;;;;;;;;4936710;29;19962;-51
2021/04/18 00:51:09;;;;;;;;;;;;;;;;;;4937124;29;19915;-52
2021/04/18 00:53:34;;;;;;;;;;;;;;;;;;4938066;29;19965;-55
2021/04/18 00:55:59;;;;;;;;;;;;;;;;;;4937928;29;20290;-54
2021/04/18 00:58:24;;;;;;;;;;;;;;;;;;4938156;29;19915;-55
2021/04/18 01:00:50;;;;;;;;;;;;;;;;;;4935106;29;20279;-55
2021/04/18 01:03:15;;;;;;;;;;;;;;;;;;4920424;29;19918;-56
2021/04/18 01:05:41;;;;;;;;;;;;;;;;;;4935930;29;19911;-54
2021/04/18 01:08:09;;;;;;;;;;;;;;;;;;4937466;29;20090;-54
2021/04/18 01:10:34;;;;;;;;;;;;;;;;;;4937272;29;19933;-56
2021/04/18 01:13:00;;;;;;;;;;;;;;;;;;4936062;29;19907;-54
2021/04/18 01:15:25;;;;;;;;;;;;;;;;;;4936495;29;19911;-54
2021/04/18 01:17:51;;;;;;;;;;;;;;;;;;4937096;29;19918;-52
2021/04/18 01:20:16;;;;;;;;;;;;;;;;;;4936104;29;19917;-56
2021/04/18 01:22:42;;;;;;;;;;;;;;;;;;4935530;29;19914;-53
2021/04/18 01:25:30;;;;;;;;;;;;;;;;;;4934030;29;19915;-54
2021/04/18 01:28:03;;;;;;;;;;;;;;;;;;4935885;29;20339;-53
2021/04/18 01:30:28;;;;;;;;;;;;;;;;;;4936890;29;19921;-54
2021/04/18 01:32:54;;;;;;;;;;;;;;;;;;4935580;29;20005;-52
2021/04/18 01:35:19;;;;;;;;;;;;;;;;;;4935480;29;19953;-51
2021/04/18 01:37:45;;;;;;;;;;;;;;;;;;4936565;29;20398;-54
2021/04/18 01:40:11;;;;;;;;;;;;;;;;;;4935690;29;19911;-55
2021/04/18 01:42:36;;;;;;;;;;;;;;;;;;4936466;29;20363;-56
2021/04/18 01:45:01;;;;;;;;;;;;;;;;;;4936651;29;19914;-53
2021/04/18 01:47:27;;;;;;;;;;;;;;;;;;4936907;29;19961;-54
2021/04/18 01:49:52;;;;;;;;;;;;;;;;;;4936087;29;19918;-54
2021/04/18 01:52:17;;;;;;;;;;;;;;;;;;4937123;29;19911;-53
2021/04/18 01:54:43;;;;;;;;;;;;;;;;;;4937244;29;19910;-54
2021/04/18 01:57:08;;;;;;;;;;;;;;;;;;4938081;29;19911;-51
2021/04/18 01:59:39;;;;;;;;;;;;;;;;;;4935982;29;20362;-52
2021/04/18 02:02:38;;;;;;;;;;;;;;;;;;4936213;29;19911;-55
2021/04/18 02:05:09;;;;;;;;;;;;;;;;;;4936765;29;19966;-52
2021/04/18 02:07:34;;;;;;;;;;;;;;;;;;4936865;29;19911;-51
2021/04/18 02:09:59;;;;;;;;;;;;;;;;;;4937001;29;20021;-51
2021/04/18 02:12:25;;;;;;;;;;;;;;;;;;4919348;29;19918;-53
2021/04/18 02:14:51;;;;;;;;;;;;;;;;;;4934705;29;19910;-53
2021/04/18 02:17:20;;;;;;;;;;;;;;;;;;4936004;29;19923;-55
2021/04/18 02:19:46;;;;;;;;;;;;;;;;;;4933473;29;19910;-53
2021/04/18 02:22:11;;;;;;;;;;;;;;;;;;4933883;29;20375;-53
2021/04/18 02:24:42;;;;;;;;;;;;;;;;;;4932658;29;20005;-52
2021/04/18 02:27:08;;;;;;;;;;;;;;;;;;4932623;29;19994;-54
2021/04/18 02:29:41;;;;;;;;;;;;;;;;;;4918294;29;19914;-53
2021/04/18 02:32:12;;;;;;;;;;;;;;;;;;4933288;29;20360;-55
2021/04/18 02:34:44;;;;;;;;;;;;;;;;;;4933318;29;19910;-53
2021/04/18 02:37:09;;;;;;;;;;;;;;;;;;4934683;29;19997;-54
2021/04/18 02:39:35;;;;;;;;;;;;;;;;;;4933167;29;20021;-54
2021/04/18 02:42:01;;;;;;;;;;;;;;;;;;4917110;29;20005;-54
2021/04/18 02:44:26;;;;;;;;;;;;;;;;;;4934345;29;20037;-54
2021/04/18 02:46:52;;;;;;;;;;;;;;;;;;4934209;29;20022;-53
2021/04/18 02:49:17;;;;;;;;;;;;;;;;;;4934239;29;19918;-53
2021/04/18 02:51:44;;;;;;;;;;;;;;;;;;4935621;29;20005;-53
2021/04/18 02:54:10;;;;;;;;;;;;;;;;;;4935730;29;19964;-54
2021/04/18 02:56:37;;;;;;;;;;;;;;;;;;4934296;29;19917;-54
2021/04/18 02:59:07;;;;;;;;;;;;;;;;;;4934078;29;19907;-55
2021/04/18 03:01:32;;;;;;;;;;;;;;;;;;4918273;29;19930;-54
2021/04/18 03:03:58;;;;;;;;;;;;;;;;;;4935147;29;19918;-55
2021/04/18 03:06:23;;;;;;;;;;;;;;;;;;4934472;29;20436;-57
2021/04/18 03:08:48;;;;;;;;;;;;;;;;;;4935646;29;19914;-54
2021/04/18 03:11:14;;;;;;;;;;;;;;;;;;4934473;29;19907;-54
2021/04/18 03:13:39;;;;;;;;;;;;;;;;;;4918369;29;20268;-55
2021/04/18 03:16:05;;;;;;;;;;;;;;;;;;4917939;29;19961;-54
2021/04/18 03:18:30;;;;;;;;;;;;;;;;;;4934214;29;19958;-54
2021/04/18 03:20:56;;;;;;;;;;;;;;;;;;4935068;29;19911;-55
2021/04/18 03:23:26;;;;;;;;;;;;;;;;;;4934068;29;19981;-55
2021/04/18 03:25:53;;;;;;;;;;;;;;;;;;4933833;29;19930;-53
2021/04/18 03:28:20;;;;;;;;;;;;;;;;;;4935182;29;19958;-54
2021/04/18 03:30:48;;;;;;;;;;;;;;;;;;4934916;29;19946;-54
2021/04/18 03:33:18;;;;;;;;;;;;;;;;;;4935689;29;19918;-55
2021/04/18 03:35:45;;;;;;;;;;;;;;;;;;4933784;29;19911;-54
2021/04/18 03:38:11;;;;;;;;;;;;;;;;;;4937219;29;19954;-55
2021/04/18 03:40:38;;;;;;;;;;;;;;;;;;4937968;29;20010;-56
2021/04/18 03:43:03;;;;;;;;;;;;;;;;;;4938621;29;20005;-54
2021/04/18 03:45:28;;;;;;;;;;;;;;;;;;4937432;29;19957;-56
2021/04/18 03:47:54;;;;;;;;;;;;;;;;;;4938354;29;19907;-55
2021/04/18 03:50:20;;;;;;;;;;;;;;;;;;4937763;29;20375;-53
2021/04/18 03:53:12;;;;;;;;;;;;;;;;;;4937349;29;19933;-54
2021/04/18 03:55:41;;;;;;;;;;;;;;;;;;4938560;29;19915;-54
2021/04/18 03:58:06;;;;;;;;;;;;;;;;;;4938460;29;19911;-53
2021/04/18 04:00:33;;;;;;;;;;;;;;;;;;4937467;29;19957;-54
2021/04/18 04:02:59;;;;;;;;;;;;;;;;;;4938096;29;19914;-52
2021/04/18 04:05:26;;;;;;;;;;;;;;;;;;4938939;29;19910;-54
2021/04/18 04:07:53;;;;;;;;;;;;;;;;;;4936964;29;19918;-55
2021/04/18 04:10:18;;;;;;;;;;;;;;;;;;4921280;29;19911;-55
2021/04/18 04:12:47;;;;;;;;;;;;;;;;;;4936737;29;19910;-52
2021/04/18 04:15:13;;;;;;;;;;;;;;;;;;4938179;29;20263;-55
2021/04/18 04:17:39;;;;;;;;;;;;;;;;;;4936980;29;19996;-54
2021/04/18 04:20:12;;;;;;;;;;;;;;;;;;4937980;29;20395;-53
2021/04/18 04:23:06;;;;;;;;;;;;;;;;;;4936698;29;19918;-54
2021/04/18 04:25:32;;;;;;;;;;;;;;;;;;4938327;29;19937;-53
2021/04/18 04:27:58;;;;;;;;;;;;;;;;;;4938190;29;19915;-53
2021/04/18 04:30:23;;;;;;;;;;;;;;;;;;4938169;29;19918;-52
2021/04/18 04:32:48;;;;;;;;;;;;;;;;;;4937960;29;19911;-54
2021/04/18 04:35:13;;;;;;;;;;;;;;;;;;4937778;29;19906;-56
2021/04/18 04:37:39;;;;;;;;;;;;;;;;;;4936849;29;19974;-55
2021/04/18 04:40:04;;;;;;;;;;;;;;;;;;4920665;29;19913;-55
2021/04/18 04:42:29;;;;;;;;;;;;;;;;;;4936537;29;20002;-54
2021/04/18 04:44:54;;;;;;;;;;;;;;;;;;4937618;29;20363;-54
2021/04/18 04:47:19;;;;;;;;;;;;;;;;;;4936260;29;20253;-55
2021/04/18 04:49:45;;;;;;;;;;;;;;;;;;4922355;29;19911;-54
2021/04/18 04:52:10;;;;;;;;;;;;;;;;;;4927739;29;20314;-54
2021/04/18 04:54:35;;;;;;;;;;;;;;;;;;4937485;29;20366;-55
2021/04/18 04:57:00;;;;;;;;;;;;;;;;;;4937389;29;19957;-55
2021/04/18 04:59:26;;;;;;;;;;;;;;;;;;4937994;29;19915;-54
2021/04/18 05:01:51;;;;;;;;;;;;;;;;;;4936440;29;20042;-55
2021/04/18 05:04:16;;;;;;;;;;;;;;;;;;4922010;29;20362;-54
2021/04/18 05:06:41;;;;;;;;;;;;;;;;;;4918376;29;20339;-53
2021/04/18 05:09:06;;;;;;;;;;;;;;;;;;4918058;29;19989;-53
2021/04/18 05:11:32;;;;;;;;;;;;;;;;;;4918555;29;19914;-56
2021/04/18 05:13:57;;;;;;;;;;;;;;;;;;4916845;29;19911;-54
2021/04/18 05:16:22;;;;;;;;;;;;;;;;;;4917224;29;19915;-51
2021/04/18 05:18:47;;;;;;;;;;;;;;;;;;4918274;29;19910;-51
2021/04/18 05:21:13;;;;;;;;;;;;;;;;;;4918242;29;19962;-51
2021/04/18 05:23:38;;;;;;;;;;;;;;;;;;4901181;29;20279;-54
2021/04/18 05:26:03;;;;;;;;;;;;;;;;;;4916707;29;19915;-56
2021/04/18 05:28:28;;;;;;;;;;;;;;;;;;4918055;29;19922;-53
2021/04/18 05:30:55;;;;;;;;;;;;;;;;;;4916801;29;20360;-54
2021/04/18 05:33:20;;;;;;;;;;;;;;;;;;4917720;29;19907;-54
2021/04/18 05:35:46;;;;;;;;;;;;;;;;;;4917777;29;19911;-51
2021/04/18 05:38:11;;;;;;;;;;;;;;;;;;4917774;29;19917;-56
2021/04/18 05:40:36;;;;;;;;;;;;;;;;;;4916565;29;19911;-55
2021/04/18 05:43:01;;;;;;;;;;;;;;;;;;4917238;29;19915;-55
2021/04/18 05:45:27;;;;;;;;;;;;;;;;;;4917806;29;19954;-54
2021/04/18 05:47:52;;;;;;;;;;;;;;;;;;4916327;29;19959;-53
2021/04/18 05:50:17;;;;;;;;;;;;;;;;;;4916335;29;19911;-56
2021/04/18 05:52:44;;;;;;;;;;;;;;;;;;4916253;29;19962;-54
2021/04/18 05:55:09;;;;;;;;;;;;;;;;;;4917291;29;20010;-52
2021/04/18 05:57:34;;;;;;;;;;;;;;;;;;4917453;29;19953;-55
2021/04/18 05:59:59;;;;;;;;;;;;;;;;;;4917429;29;19911;-56
2021/04/18 06:02:25;;;;;;;;;;;;;;;;;;4915773;29;19982;-51
2021/04/18 06:04:50;;;;;;;;;;;;;;;;;;4917387;29;20090;-52
2021/04/18 06:07:16;;;;;;;;;;;;;;;;;;4917046;29;19994;-54
2021/04/18 06:09:41;;;;;;;;;;;;;;;;;;4917588;29;19911;-52
2021/04/18 06:12:07;;;;;;;;;;;;;;;;;;4900047;29;19915;-52
2021/04/18 06:14:32;;;;;;;;;;;;;;;;;;4915700;29;19918;-53
2021/04/18 06:16:58;;;;;;;;;;;;;;;;;;4915890;29;19911;-55
2021/04/18 06:19:23;;;;;;;;;;;;;;;;;;4916780;29;20430;-53
2021/04/18 06:21:48;;;;;;;;;;;;;;;;;;4915788;29;20001;-54
2021/04/18 06:24:13;;;;;;;;;;;;;;;;;;4916218;29;19942;-53
2021/04/18 06:26:38;;;;;;;;;;;;;;;;;;4916311;29;19922;-50
2021/04/18 06:29:04;;;;;;;;;;;;;;;;;;4916777;29;19915;-54
2021/04/18 06:31:29;;;;;;;;;;;;;;;;;;4916893;29;19915;-50
2021/04/18 06:33:54;;;;;;;;;;;;;;;;;;4917866;29;19966;-51
2021/04/18 06:36:19;;;;;;;;;;;;;;;;;;4915546;29;19962;-52
2021/04/18 06:38:44;;;;;;;;;;;;;;;;;;4917613;29;19918;-52
2021/04/18 06:41:10;;;;;;;;;;;;;;;;;;4915314;29;20018;-53
2021/04/18 06:43:35;;;;;;;;;;;;;;;;;;4916717;29;19926;-55
2021/04/18 06:46:00;;;;;;;;;;;;;;;;;;4916670;29;19914;-56
2021/04/18 06:48:25;;;;;;;;;;;;;;;;;;4916372;29;20010;-53
2021/04/18 06:50:52;;;;;;;;;;;;;;;;;;4916673;29;20043;-54
2021/04/18 06:53:17;;;;;;;;;;;;;;;;;;4916661;29;19977;-53
2021/04/18 06:55:42;;;;;;;;;;;;;;;;;;4917031;29;19962;-54
2021/04/18 06:58:08;;;;;;;;;;;;;;;;;;4916952;29;19911;-55
2021/04/18 07:00:33;;;;;;;;;;;;;;;;;;4918394;29;20427;-54
2021/04/18 07:02:58;;;;;;;;;;;;;;;;;;4918680;29;19919;-54
2021/04/18 07:05:24;;;;;;;;;;;;;;;;;;4917601;29;19918;-56
2021/04/18 07:07:49;;;;;;;;;;;;;;;;;;4899678;29;19911;-54
2021/04/18 07:10:14;;;;;;;;;;;;;;;;;;4915218;29;19939;-54
2021/04/18 07:12:39;;;;;;;;;;;;;;;;;;4916257;29;20326;-54
2021/04/18 07:15:05;;;;;;;;;;;;;;;;;;4915073;29;20356;-54
2021/04/18 07:17:30;;;;;;;;;;;;;;;;;;4914936;29;19911;-55
2021/04/18 07:19:55;;;;;;;;;;;;;;;;;;4916962;29;19967;-54
2021/04/18 07:22:20;;;;;;;;;;;;;;;;;;4916452;29;19915;-54
2021/04/18 07:24:45;;;;;;;;;;;;;;;;;;4916455;29;19915;-55
2021/04/18 07:27:11;;;;;;;;;;;;;;;;;;4915137;29;19988;-56
2021/04/18 07:29:36;;;;;;;;;;;;;;;;;;4915058;29;19998;-54
2021/04/18 07:32:01;;;;;;;;;;;;;;;;;;4916138;29;19907;-53
2021/04/18 07:34:26;;;;;;;;;;;;;;;;;;4915980;29;19914;-54
2021/04/18 07:36:52;;;;;;;;;;;;;;;;;;4915850;29;19918;-57
2021/04/18 07:39:17;;;;;;;;;;;;;;;;;;4916248;29;19966;-55
2021/04/18 07:41:42;;;;;;;;;;;;;;;;;;4915974;29;20340;-54
2021/04/18 07:44:14;;;;;;;;;;;;;;;;;;4914433;29;19919;-54
2021/04/18 07:46:39;;;;;;;;;;;;;;;;;;4916143;29;20183;-53
2021/04/18 07:49:04;;;;;;;;;;;;;;;;;;4916289;29;20276;-52
2021/04/18 07:51:30;;;;;;;;;;;;;;;;;;4914432;29;19919;-55
2021/04/18 07:53:55;;;;;;;;;;;;;;;;;;4916311;29;19911;-54
2021/04/18 07:56:20;;;;;;;;;;;;;;;;;;4915653;29;19994;-55
2021/04/18 07:58:45;;;;;;;;;;;;;;;;;;4899009;29;20423;-53
2021/04/18 08:01:11;;;;;;;;;;;;;;;;;;4915792;29;19982;-54
2021/04/18 08:03:36;;;;;;;;;;;;;;;;;;4933728;29;19919;-54
2021/04/18 08:06:01;;;;;;;;;;;;;;;;;;4934878;29;19961;-51
2021/04/18 08:08:27;;;;;;;;;;;;;;;;;;4934810;29;19910;-54
2021/04/18 08:10:53;;;;;;;;;;;;;;;;;;4934952;29;20267;-55
2021/04/18 08:13:20;;;;;;;;;;;;;;;;;;4933283;29;19946;-56
2021/04/18 08:15:45;;;;;;;;;;;;;;;;;;4933774;29;19911;-52
2021/04/18 08:18:10;;;;;;;;;;;;;;;;;;4934672;29;19910;-52
2021/04/18 08:20:36;;;;;;;;;;;;;;;;;;4933172;29;19907;-55
2021/04/18 08:23:05;;;;;;;;;;;;;;;;;;4933745;29;20371;-54
2021/04/18 08:25:30;;;;;;;;;;;;;;;;;;4937958;29;19960;-53
2021/04/18 08:27:56;;;;;;;;;;;;;;;;;;4937062;29;19942;-53
2021/04/18 08:30:21;;;;;;;;;;;;;;;;;;4938008;29;19907;-55
2021/04/18 08:32:47;;;;;;;;;;;;;;;;;;4921227;29;20267;-56
2021/04/18 08:35:12;;;;;;;;;;;;;;;;;;4938242;29;19911;-53
2021/04/18 08:37:37;;;;;;;;;;;;;;;;;;4938176;29;19911;-53
2021/04/18 08:40:03;;;;;;;;;;;;;;;;;;4938071;29;19911;-54
2021/04/18 08:42:28;;;;;;;;;;;;;;;;;;4937963;29;19910;-54
2021/04/18 08:44:53;;;;;;;;;;;;;;;;;;4937676;29;19918;-53
2021/04/18 08:47:22;;;;;;;;;;;;;;;;;;4936439;29;19989;-56
2021/04/18 08:49:47;;;;;;;;;;;;;;;;;;4936683;29;20030;-55
2021/04/18 08:52:12;;;;;;;;;;;;;;;;;;4937755;29;20355;-52
2021/04/18 08:54:37;;;;;;;;;;;;;;;;;;4936325;29;20380;-56
2021/04/18 08:57:07;;;;;;;;;;;;;;;;;;4937761;29;20013;-55
2021/04/18 08:59:32;;;;;;;;;;;;;;;;;;4936157;29;19917;-55
2021/04/18 09:01:58;;;;;;;;;;;;;;;;;;4936117;29;19911;-54
2021/04/18 09:04:23;;;;;;;;;;;;;;;;;;4935733;29;19929;-53
2021/04/18 09:06:49;;;;;;;;;;;;;;;;;;4936535;29;19938;-54
2021/04/18 09:09:14;;;;;;;;;;;;;;;;;;4936270;29;19966;-55
2021/04/18 09:11:41;;;;;;;;;;;;;;;;;;4935969;29;19954;-53
2021/04/18 09:14:06;;;;;;;;;;;;;;;;;;4936188;29;20287;-55
2021/04/18 09:16:31;;;;;;;;;;;;;;;;;;4926772;29;19918;-52
2021/04/18 09:18:56;;;;;;;;;;;;;;;;;;4918140;29;20224;-54
2021/04/18 09:21:26;;;;;;;;;;;;;;;;;;4917931;29;20017;-54
2021/04/18 09:23:51;;;;;;;;;;;;;;;;;;4917043;29;20363;-53
2021/04/18 09:26:16;;;;;;;;;;;;;;;;;;4917002;29;19915;-53
2021/04/18 09:28:41;;;;;;;;;;;;;;;;;;4936683;29;19946;-54
2021/04/18 09:31:07;;;;;;;;;;;;;;;;;;4936955;29;19938;-55
2021/04/18 09:33:32;;;;;;;;;;;;;;;;;;4920255;29;20340;-54
2021/04/18 09:35:57;;;;;;;;;;;;;;;;;;4917367;29;20069;-56
2021/04/18 09:38:22;;;;;;;;;;;;;;;;;;4918070;29;19961;-56
2021/04/18 09:40:48;;;;;;;;;;;;;;;;;;4917690;29;19919;-57
2021/04/18 09:43:17;;;;;;;;;;;;;;;;;;4917516;29;19954;-55
2021/04/18 09:45:42;;;;;;;;;;;;;;;;;;4917582;29;19927;-54
2021/04/18 09:48:07;;;;;;;;;;;;;;;;;;4916280;29;19911;-54
2021/04/18 09:50:34;;;;;;;;;;;;;;;;;;4916152;29;19991;-55
2021/04/18 09:52:59;;;;;;;;;;;;;;;;;;4917758;29;19907;-54
2021/04/18 09:55:24;;;;;;;;;;;;;;;;;;4917673;29;19926;-54
2021/04/18 09:57:49;;;;;;;;;;;;;;;;;;4917379;29;19915;-55
2021/04/18 10:00:18;;;;;;;;;;;;;;;;;;4916370;29;20371;-54
2021/04/18 10:02:43;;;;;;;;;;;;;;;;;;4917208;29;19911;-54
2021/04/18 10:05:08;;;;;;;;;;;;;;;;;;4921694;29;19926;-53
2021/04/18 10:07:34;;;;;;;;;;;;;;;;;;4935995;29;19930;-54
2021/04/18 10:09:59;;;;;;;;;;;;;;;;;;4936451;29;19910;-54
2021/04/18 10:12:24;;;;;;;;;;;;;;;;;;4936266;29;19929;-55
2021/04/18 10:14:49;;;;;;;;;;;;;;;;;;4936126;29;20013;-55
2021/04/18 10:17:15;;;;;;;;;;;;;;;;;;4934956;29;19993;-55
2021/04/18 10:19:40;;;;;;;;;;;;;;;;;;4934733;29;19911;-55
2021/04/18 10:22:08;;;;;;;;;;;;;;;;;;4934751;29;19944;-55
2021/04/18 10:24:33;;;;;;;;;;;;;;;;;;4935621;29;20013;-55
2021/04/18 10:26:59;;;;;;;;;;;;;;;;;;4934662;29;20014;-55
2021/04/18 10:29:24;;;;;;;;;;;;;;;;;;4935855;29;19906;-55
2021/04/18 10:31:49;;;;;;;;;;;;;;;;;;4934322;29;19914;-57
2021/04/18 10:34:14;;;;;;;;;;;;;;;;;;4918915;29;20323;-55
2021/04/18 10:36:39;;;;;;;;;;;;;;;;;;4930781;29;20015;-55
2021/04/18 10:39:05;;;;;;;;;;;;;;;;;;4916907;29;20395;-55
2021/04/18 10:41:30;;;;;;;;;;;;;;;;;;4930156;29;19973;-55
2021/04/18 10:43:55;;;;;;;;;;;;;;;;;;4935566;29;19914;-55
2021/04/18 10:46:20;;;;;;;;;;;;;;;;;;4934395;29;20002;-54
2021/04/18 10:48:46;;;;;;;;;;;;;;;;;;4934519;29;20359;-55
2021/04/18 10:51:11;;;;;;;;;;;;;;;;;;4934908;29;19911;-55
2021/04/18 10:53:37;;;;;;;;;;;;;;;;;;4935411;29;19915;-56
2021/04/18 10:56:02;;;;;;;;;;;;;;;;;;4933691;29;19937;-56
2021/04/18 10:58:27;;;;;;;;;;;;;;;;;;4935455;29;19938;-56
2021/04/18 11:00:52;;;;;;;;;;;;;;;;;;4935439;29;19918;-55
2021/04/18 11:03:18;;;;;;;;;;;;;;;;;;4934724;29;19918;-55
2021/04/18 11:05:43;;;;;;;;;;;;;;;;;;4935835;29;20295;-55
2021/04/18 11:08:10;;;;;;;;;;;;;;;;;;4934557;29;20001;-56
2021/04/18 11:10:35;;;;;;;;;;;;;;;;;;4935005;29;19917;-57
2021/04/18 11:13:01;;;;;;;;;;;;;;;;;;4933780;29;20422;-57
2021/04/18 11:15:26;;;;;;;;;;;;;;;;;;4935046;29;20295;-56
2021/04/18 11:17:51;;;;;;;;;;;;;;;;;;4933874;29;19934;-57
2021/04/18 11:20:18;;;;;;;;;;;;;;;;;;4933666;29;20021;-56
2021/04/18 11:22:43;;;;;;;;;;;;;;;;;;4934531;29;19910;-58
2021/04/18 11:25:08;;;;;;;;;;;;;;;;;;4934518;29;20077;-56
2021/04/18 11:27:34;;;;;;;;;;;;;;;;;;4935119;29;19911;-55
2021/04/18 11:29:59;;;;;;;;;;;;;;;;;;4935080;29;19915;-56
2021/04/18 11:32:24;;;;;;;;;;;;;;;;;;4934683;29;19911;-56
2021/04/18 11:34:49;;;;;;;;;;;;;;;;;;4935673;29;20330;-54
2021/04/18 11:37:15;;;;;;;;;;;;;;;;;;4935383;29;20307;-56
2021/04/18 11:39:41;;;;;;;;;;;;;;;;;;4936598;29;20375;-57
2021/04/18 11:42:06;;;;;;;;;;;;;;;;;;4935404;29;20351;-55
2021/04/18 11:44:31;;;;;;;;;;;;;;;;;;4936331;29;20010;-54
2021/04/18 11:46:56;;;;;;;;;;;;;;;;;;4936254;29;19915;-56
2021/04/18 11:49:22;;;;;;;;;;;;;;;;;;4935484;29;19917;-56
2021/04/18 11:51:48;;;;;;;;;;;;;;;;;;4933827;29;19915;-55
2021/04/18 11:54:13;;;;;;;;;;;;;;;;;;4936171;29;20311;-56
2021/04/18 11:56:38;;;;;;;;;;;;;;;;;;4937489;29;20287;-55
2021/04/18 11:59:05;;;;;;;;;;;;;;;;;;4944292;29;19911;-56
2021/04/18 12:01:30;;;;;;;;;;;;;;;;;;4943861;29;20450;-56
2021/04/18 12:03:55;;;;;;;;;;;;;;;;;;4938431;29;20009;-56
2021/04/18 12:06:21;;;;;;;;;;;;;;;;;;4938238;29;19913;-56
2021/04/18 12:08:46;;;;;;;;;;;;;;;;;;4939617;29;19933;-55
2021/04/18 12:11:11;;;;;;;;;;;;;;;;;;4938761;29;20389;-57
2021/04/18 12:13:36;;;;;;;;;;;;;;;;;;4938315;29;19914;-55
2021/04/18 12:16:02;;;;;;;;;;;;;;;;;;4938346;29;19942;-56
2021/04/18 12:18:27;;;;;;;;;;;;;;;;;;4937892;29;19931;-56
2021/04/18 12:20:52;;;;;;;;;;;;;;;;;;4936755;29;19958;-56
2021/04/18 12:23:17;;;;;;;;;;;;;;;;;;4937912;29;19906;-57
2021/04/18 12:25:43;;;;;;;;;;;;;;;;;;4937765;29;19915;-57
2021/04/18 12:28:10;;;;;;;;;;;;;;;;;;4937905;29;20310;-56
2021/04/18 12:30:35;;;;;;;;;;;;;;;;;;4937875;29;19910;-57
2021/04/18 12:33:00;;;;;;;;;;;;;;;;;;4937766;29;19914;-56
2021/04/18 12:35:26;;;;;;;;;;;;;;;;;;4936338;29;19995;-57
2021/04/18 12:37:52;;;;;;;;;;;;;;;;;;4937081;29;19954;-57
2021/04/18 12:40:17;;;;;;;;;;;;;;;;;;4937450;29;20009;-56
2021/04/18 12:42:42;;;;;;;;;;;;;;;;;;4936993;29;19951;-55
2021/04/18 12:45:07;;;;;;;;;;;;;;;;;;4937877;29;20057;-55
2021/04/18 12:47:33;;;;;;;;;;;;;;;;;;4937509;29;19997;-55
2021/04/18 12:49:58;;;;;;;;;;;;;;;;;;4937155;29;19911;-56
2021/04/18 12:52:24;;;;;;;;;;;;;;;;;;4933074;29;20388;-56
2021/04/18 12:54:49;;;;;;;;;;;;;;;;;;4925509;29;19911;-56
2021/04/18 12:57:17;;;;;;;;;;;;;;;;;;4917246;29;20324;-55
2021/04/18 12:59:43;;;;;;;;;;;;;;;;;;4918468;29;19911;-54
2021/04/18 13:02:08;;;;;;;;;;;;;;;;;;4918395;29;19982;-57
2021/04/18 13:04:33;;;;;;;;;;;;;;;;;;4918370;29;20336;-56
2021/04/18 13:06:58;;;;;;;;;;;;;;;;;;4918185;29;20388;-55
2021/04/18 13:09:24;;;;;;;;;;;;;;;;;;4916616;29;20414;-56
2021/04/18 13:11:50;;;;;;;;;;;;;;;;;;4917666;29;19958;-56
2021/04/18 13:14:15;;;;;;;;;;;;;;;;;;4918124;29;19959;-56
2021/04/18 13:16:40;;;;;;;;;;;;;;;;;;4918037;29;19915;-55
2021/04/18 13:19:05;;;;;;;;;;;;;;;;;;4928819;29;19911;-56
2021/04/18 13:21:30;;;;;;;;;;;;;;;;;;4917711;29;20279;-54
2021/04/18 13:23:56;;;;;;;;;;;;;;;;;;4918007;29;20380;-55
2021/04/18 13:26:21;;;;;;;;;;;;;;;;;;4918109;29;19946;-57
2021/04/18 13:28:46;;;;;;;;;;;;;;;;;;4918042;29;19958;-55
2021/04/18 13:31:12;;;;;;;;;;;;;;;;;;4919988;29;20283;-57
2021/04/18 13:33:37;;;;;;;;;;;;;;;;;;4935321;29;19978;-55
2021/04/18 13:36:02;;;;;;;;;;;;;;;;;;4936379;29;20397;-56
2021/04/18 13:38:27;;;;;;;;;;;;;;;;;;4936849;29;19911;-55
2021/04/18 13:40:53;;;;;;;;;;;;;;;;;;4934306;29;19910;-55
2021/04/18 13:43:18;;;;;;;;;;;;;;;;;;4933501;29;20323;-55
2021/04/18 13:45:43;;;;;;;;;;;;;;;;;;4935153;29;19907;-55
2021/04/18 13:48:09;;;;;;;;;;;;;;;;;;4935428;29;19969;-56
2021/04/18 13:50:34;;;;;;;;;;;;;;;;;;4935986;29;19953;-55
2021/04/18 13:52:59;;;;;;;;;;;;;;;;;;4936697;29;20335;-56
2021/04/18 13:55:24;;;;;;;;;;;;;;;;;;4936202;29;20282;-56
2021/04/18 13:57:50;;;;;;;;;;;;;;;;;;4936321;29;19969;-56
2021/04/18 14:00:15;;;;;;;;;;;;;;;;;;4936244;29;19911;-55
2021/04/18 14:02:40;;;;;;;;;;;;;;;;;;4936460;29;19921;-51
2021/04/18 14:05:05;;;;;;;;;;;;;;;;;;4934523;29;20394;-54
2021/04/18 14:07:31;;;;;;;;;;;;;;;;;;4936404;29;19914;-54
2021/04/18 14:09:57;;;;;;;;;;;;;;;;;;4936002;29;20385;-56
2021/04/18 14:12:22;;;;;;;;;;;;;;;;;;4926641;29;20345;-55
2021/04/18 14:14:48;;;;;;;;;;;;;;;;;;4916829;29;20010;-55
2021/04/18 14:17:13;;;;;;;;;;;;;;;;;;4915647;29;20415;-57
2021/04/18 14:19:38;;;;;;;;;;;;;;;;;;4916549;29;19914;-54
2021/04/18 14:22:03;;;;;;;;;;;;;;;;;;4916827;29;20423;-56
2021/04/18 14:24:29;;;;;;;;;;;;;;;;;;4916768;29;19918;-55
2021/04/18 14:26:54;;;;;;;;;;;;;;;;;;4917105;29;19929;-55
2021/04/18 14:29:19;;;;;;;;;;;;;;;;;;4916919;29;19961;-55
2021/04/18 14:31:44;;;;;;;;;;;;;;;;;;4926936;29;19917;-55
2021/04/18 14:34:09;;;;;;;;;;;;;;;;;;4934384;29;19969;-55
2021/04/18 14:36:35;;;;;;;;;;;;;;;;;;4935892;29;19918;-55
2021/04/18 14:39:02;;;;;;;;;;;;;;;;;;4935954;29;19921;-55
2021/04/18 14:41:27;;;;;;;;;;;;;;;;;;4935722;29;19910;-54
2021/04/18 14:43:52;;;;;;;;;;;;;;;;;;4935717;29;19926;-57
2021/04/18 14:46:17;;;;;;;;;;;;;;;;;;4935370;29;19911;-54
2021/04/18 14:48:43;;;;;;;;;;;;;;;;;;4935107;29;19911;-55
2021/04/18 14:51:08;;;;;;;;;;;;;;;;;;4935724;29;19910;-56
2021/04/18 14:53:33;;;;;;;;;;;;;;;;;;4935058;29;20002;-56
2021/04/18 14:55:58;;;;;;;;;;;;;;;;;;4935566;29;19946;-55
2021/04/18 14:58:23;;;;;;;;;;;;;;;;;;4934096;29;19911;-55
2021/04/18 15:00:49;;;;;;;;;;;;;;;;;;4935079;29;19953;-55
2021/04/18 15:03:14;;;;;;;;;;;;;;;;;;4935422;29;20027;-55
2021/04/18 15:05:39;;;;;;;;;;;;;;;;;;4934748;29;19982;-56
2021/04/18 15:08:04;;;;;;;;;;;;;;;;;;4935072;29;19917;-57
2021/04/18 15:10:29;;;;;;;;;;;;;;;;;;4933866;29;19915;-55
2021/04/18 15:12:55;;;;;;;;;;;;;;;;;;4935393;29;19911;-55
2021/04/18 15:15:21;;;;;;;;;;;;;;;;;;4935170;29;20014;-54
2021/04/18 15:17:46;;;;;;;;;;;;;;;;;;4935300;29;19966;-56
2021/04/18 15:20:11;;;;;;;;;;;;;;;;;;4934792;29;19955;-56
2021/04/18 15:22:36;;;;;;;;;;;;;;;;;;4935082;29;19911;-56
2021/04/18 15:25:02;;;;;;;;;;;;;;;;;;4933468;29;20394;-55
2021/04/18 15:27:27;;;;;;;;;;;;;;;;;;4935291;29;20374;-56
2021/04/18 15:29:52;;;;;;;;;;;;;;;;;;4934813;29;20282;-56
2021/04/18 15:32:17;;;;;;;;;;;;;;;;;;4933757;29;20385;-56
2021/04/18 15:34:43;;;;;;;;;;;;;;;;;;4936118;29;19911;-55
2021/04/18 15:37:08;;;;;;;;;;;;;;;;;;4939080;29;19933;-55
2021/04/18 15:39:33;;;;;;;;;;;;;;;;;;4938459;29;19910;-55
2021/04/18 15:41:58;;;;;;;;;;;;;;;;;;4933537;29;19961;-54
2021/04/18 15:44:24;;;;;;;;;;;;;;;;;;4918487;29;20375;-55
2021/04/18 15:46:49;;;;;;;;;;;;;;;;;;4924766;29;20347;-54
2021/04/18 15:49:14;;;;;;;;;;;;;;;;;;4938830;29;19911;-56
2021/04/18 15:51:40;;;;;;;;;;;;;;;;;;4939283;29;19974;-56
2021/04/18 15:54:05;;;;;;;;;;;;;;;;;;4938337;29;19910;-55
2021/04/18 15:56:31;;;;;;;;;;;;;;;;;;4937801;29;20282;-55
2021/04/18 15:58:56;;;;;;;;;;;;;;;;;;4939003;29;19918;-57
2021/04/18 16:01:21;;;;;;;;;;;;;;;;;;4938697;29;19982;-56
2021/04/18 16:03:46;;;;;;;;;;;;;;;;;;4938161;29;19991;-57
2021/04/18 16:06:12;;;;;;;;;;;;;;;;;;4939034;29;19918;-54
2021/04/18 16:08:37;;;;;;;;;;;;;;;;;;4938022;29;19911;-56
2021/04/18 16:11:02;;;;;;;;;;;;;;;;;;4937632;29;20351;-53
2021/04/18 16:13:28;;;;;;;;;;;;;;;;;;4938268;29;19921;-54
2021/04/18 16:15:53;;;;;;;;;;;;;;;;;;4937933;29;19921;-55
2021/04/18 16:18:18;;;;;;;;;;;;;;;;;;4937960;29;20333;-56
2021/04/18 16:20:43;;;;;;;;;;;;;;;;;;4936892;29;19935;-55
2021/04/18 16:23:09;;;;;;;;;;;;;;;;;;4936596;29;19957;-56
2021/04/18 16:25:34;;;;;;;;;;;;;;;;;;4938330;29;19932;-56
2021/04/18 16:27:59;;;;;;;;;;;;;;;;;;4937871;29;20110;-55
2021/04/18 16:30:24;;;;;;;;;;;;;;;;;;4938078;29;19911;-54
2021/04/18 16:32:50;;;;;;;;;;;;;;;;;;4937286;29;19911;-54
2021/04/18 16:35:15;;;;;;;;;;;;;;;;;;4937944;29;20283;-56